Leesburg, FL

12:56 AM EDT on August 30, 2016 (GMT -0400)
Cypress Creek | | Change Station

Elev 82 ft 28.77 °N, 81.88 °W | Updated 6 seconds ago

Overcast
Overcast
77.4 °F
Feels Like 78 °F
N
1.8
Wind Variable Wind from ENE
Gusts 2.5 mph

Today
High -- | Low -- °F
--% Chance of Precip.
Yesterday
High -- | Low -- °F
Precip. -- in
Pressure 29.97 in
Visibility 10.0 miles
Clouds Few 8000 ft
Heat Index 78 °F
Dew Point 51 °F
Humidity 40%
Rainfall 0.00 in
Snow Depth Not available.
7:04 AM 7:50 PM
Waning Crescent, 5% visible
METAR KLEE 300453Z AUTO 08006KT 10SM -RA FEW080 24/23 A2997 RMK AO2 SLP149 P0000 T02440228 403560239
Pressure 29.97 in
Visibility 10.0 miles
Clouds Few 8000 ft
Heat Index 78 °F
Dew Point 51 °F
Humidity 40%
Rainfall 0.00 in
Snow Depth Not available.
7:04 AM 7:50 PM
Waning Crescent, 5% visible
METAR KLEE 300453Z AUTO 08006KT 10SM -RA FEW080 24/23 A2997 RMK AO2 SLP149 P0000 T02440228 403560239
Tropical Depression Nine was centered about 170 miles west-southwest of Key West, Florida, as of late Monday morning. The depression may struggle a bit in the southern Gulf of Mexico before finally making a Gulf Coast landfall later this week with soaking rain and gusty winds.

This latest system was designated a tropical depression Sunday after a Hurricane Hunter reconnaissance mission finally found a sufficiently organized low-pressure center with collocated shower and thunderstorm activity.

10-Day Weather Forecast

Almanac

Astronomy

Aug. 30, 2016 Rise Set
Actual Time
Civil Twilight
Nautical Twilight
Astronomical Twilight
Moon
Length of Visible Light
Length of Day
Tomorrow will be .
, % of the Moon is Illuminated

Today's Extremes

State Highs State Lows

Community

WunderPhotos

Upload Photos

1,935,791 photos uploaded!

WunderBlog® & News

Nearby

Air Quality

  Air Quality AQ Index Pollutant
Not available.

Snow Depth

Station Depth Elevation

Earthquake Activity

City Distance Mag. Time & Date
Minimum magnitude displayed is 2.5.

Coastal Water Temperatures

Place Temperature

Stations

Nearby Weather Stations

Station Location Temp. Windchill Dew Point Humidity Wind Precip. Elev Updated Type
                   

Watches & Warnings

There are currently no watches in effect.